Cloridorme, Canada
Current Conditions -  °F | °C
As of 11:00 AM on Wednesday 26 Nov 2014 (Local Time) from CYGP Reporting Station
Overcast Overcast  
Wind Chill: 27°   Ceiling: 12000
Heat Index: 34°   Visibility: 15mi
Dew Point: 19°   Wind: 8mph
Humidity: 56%   Direction: 330°NNW
Pressure: 30.09"   Gusts: 20mph
Location:  49.17°N, 64.92°W
Report Text: CYGP 261600Z 33007G17KT 300V360 15SM FEW025 OVC120 01/M07 A3009 RMK SC1AC7 SLP192
Loading
Personal Weather Stations






























Interactive Weather Map New forecast layout! Learn more

10-Day Weather Forecast

Advertisements
Track Severe Weather on mobile